createdAt,value
2019-02-07T00:00:35.484Z,-4.60
2019-02-07T00:03:03.078Z,-4.60
2019-02-07T00:05:30.569Z,-4.60
2019-02-07T00:07:58.027Z,-4.60
2019-02-07T00:10:25.624Z,-4.60
2019-02-07T00:12:53.476Z,-4.60
2019-02-07T00:15:20.925Z,-4.50
2019-02-07T00:17:48.605Z,-4.50
2019-02-07T00:20:16.291Z,-4.60
2019-02-07T00:22:43.865Z,-4.30
2019-02-07T00:25:11.358Z,-4.60
2019-02-07T00:27:38.824Z,-4.50
2019-02-07T00:30:09.174Z,-4.50
2019-02-07T00:32:36.655Z,-4.50
2019-02-07T00:35:05.264Z,-4.60
2019-02-07T00:37:32.751Z,-4.30
2019-02-07T00:40:00.317Z,-4.70
2019-02-07T00:42:27.816Z,-6.80
2019-02-07T00:44:55.309Z,-4.70
2019-02-07T00:47:23.092Z,-4.70
2019-02-07T00:49:50.595Z,-4.80
2019-02-07T00:52:18.048Z,-4.80
2019-02-07T00:54:45.541Z,-4.90
2019-02-07T00:57:13.227Z,-4.90
2019-02-07T00:59:40.802Z,-4.90
2019-02-07T01:02:08.461Z,-4.90
2019-02-07T01:04:36.108Z,-4.90
2019-02-07T01:07:03.780Z,-4.90
2019-02-07T01:09:34.103Z,-4.70
2019-02-07T01:12:01.624Z,-4.90
2019-02-07T01:14:29.075Z,-4.90
2019-02-07T01:16:56.525Z,-4.90
2019-02-07T01:19:24.047Z,-4.90
2019-02-07T01:21:51.532Z,-4.90
2019-02-07T01:24:18.981Z,-4.90
2019-02-07T01:26:46.464Z,-4.90
2019-02-07T01:29:13.903Z,-4.90
2019-02-07T01:31:41.407Z,-4.90
2019-02-07T01:34:08.876Z,-4.80
2019-02-07T01:36:36.367Z,-4.80
2019-02-07T01:39:07.132Z,-4.70
2019-02-07T01:41:35.043Z,-4.80
2019-02-07T01:44:02.554Z,-4.70
2019-02-07T01:46:30.020Z,-4.80
2019-02-07T01:48:57.538Z,-4.70
2019-02-07T01:51:24.981Z,-4.80
2019-02-07T01:53:52.466Z,-4.80
2019-02-07T01:56:19.954Z,-4.80
2019-02-07T01:58:47.432Z,-4.90
2019-02-07T02:01:14.887Z,-5.00
2019-02-07T02:03:42.371Z,-5.00
2019-02-07T02:06:09.849Z,-5.00
2019-02-07T02:08:37.322Z,-5.00
2019-02-07T02:11:04.807Z,-5.00
2019-02-07T02:13:32.869Z,-4.90
2019-02-07T02:16:00.346Z,-4.90
2019-02-07T02:18:27.863Z,-4.90
2019-02-07T02:20:56.166Z,-5.00
2019-02-07T02:23:23.657Z,-5.00
2019-02-07T02:25:51.136Z,-5.00
2019-02-07T02:28:18.658Z,-5.10
2019-02-07T02:30:46.325Z,-6.70
2019-02-07T02:33:13.775Z,-5.20
2019-02-07T02:35:41.385Z,-5.10
2019-02-07T02:38:08.837Z,-5.20
2019-02-07T02:40:36.349Z,-5.20
2019-02-07T02:43:03.850Z,-5.20
2019-02-07T02:45:37.418Z,-5.20
2019-02-07T02:48:01.044Z,-5.20
2019-02-07T02:50:28.548Z,-5.20
2019-02-07T02:52:56.016Z,-5.20
2019-02-07T02:55:30.549Z,-5.10
2019-02-07T02:57:58.161Z,-5.20
2019-02-07T03:00:34.719Z,-5.20
2019-02-07T03:03:40.139Z,-5.20
2019-02-07T03:06:16.389Z,-5.20
2019-02-07T03:08:56.932Z,-5.30
2019-02-07T03:11:40.501Z,-5.30
2019-02-07T03:14:24.408Z,-5.30
2019-02-07T03:17:05.006Z,-5.30
2019-02-07T03:20:01.076Z,-5.30
2019-02-07T03:22:48.073Z,-5.30
2019-02-07T03:25:34.138Z,-5.40
2019-02-07T03:28:30.357Z,-5.40
2019-02-07T03:31:29.932Z,-5.40
2019-02-07T03:34:15.710Z,-5.40
2019-02-07T03:37:01.731Z,-5.50
2019-02-07T03:39:51.727Z,-5.40
2019-02-07T03:42:41.783Z,-5.40
2019-02-07T03:45:43.859Z,-5.40
2019-02-07T03:48:37.249Z,-5.40
2019-02-07T03:51:18.604Z,-5.40
2019-02-07T03:54:05.599Z,-5.40
2019-02-07T03:56:53.441Z,-5.30
2019-02-07T03:59:39.445Z,-5.30
2019-02-07T04:02:29.430Z,-5.30
2019-02-07T04:05:15.122Z,-5.40
2019-02-07T04:08:01.151Z,-5.40
2019-02-07T04:10:43.227Z,-5.40
2019-02-07T04:13:30.635Z,-5.50
2019-02-07T04:16:17.803Z,-5.50
2019-02-07T04:18:55.619Z,-5.50
2019-02-07T04:21:45.596Z,-5.60
2019-02-07T04:24:33.496Z,-5.60
2019-02-07T04:27:26.602Z,-5.60
2019-02-07T04:30:48.163Z,-5.70
2019-02-07T04:33:34.155Z,-6.00
2019-02-07T04:36:39.561Z,-5.70
2019-02-07T04:39:14.244Z,-5.60
2019-02-07T04:41:59.745Z,-5.60
2019-02-07T04:44:58.722Z,-5.70
2019-02-07T04:47:51.518Z,-5.70
2019-02-07T04:50:38.505Z,-5.60
2019-02-07T04:53:24.157Z,-5.60
2019-02-07T04:56:10.250Z,-5.60
2019-02-07T04:58:55.179Z,-5.60
2019-02-07T05:01:41.033Z,-5.60
2019-02-07T05:04:46.335Z,-5.60
2019-02-07T05:07:42.374Z,-5.60
2019-02-07T05:10:28.281Z,-5.60
2019-02-07T05:13:27.344Z,-5.60
2019-02-07T05:16:10.388Z,-5.60
2019-02-07T05:18:57.309Z,-5.60
2019-02-07T05:21:47.542Z,-5.60
2019-02-07T05:24:27.650Z,-5.60
2019-02-07T05:27:26.323Z,-5.50
2019-02-07T05:30:13.310Z,-5.60
2019-02-07T05:32:51.301Z,-5.60
2019-02-07T05:35:44.157Z,-5.50
2019-02-07T05:38:34.148Z,-5.50
2019-02-07T05:41:30.026Z,-5.50
2019-02-07T05:44:13.129Z,-5.50
2019-02-07T05:46:56.614Z,-5.50
2019-02-07T05:49:46.924Z,-5.60
2019-02-07T05:52:32.763Z,-5.50
2019-02-07T05:55:26.056Z,-5.50
2019-02-07T05:58:22.269Z,-5.60
2019-02-07T06:01:09.608Z,-5.50
2019-02-07T06:03:59.289Z,-5.50
2019-02-07T06:06:46.921Z,-5.50
2019-02-07T06:09:30.711Z,-5.60
2019-02-07T06:12:16.636Z,-5.60
2019-02-07T06:15:06.648Z,-5.60
2019-02-07T06:18:01.959Z,-4.40
2019-02-07T06:20:43.111Z,-5.60
2019-02-07T06:23:28.753Z,-5.60
2019-02-07T06:26:31.109Z,-5.60
2019-02-07T06:29:22.895Z,-5.30
2019-02-07T06:32:11.279Z,-5.60
2019-02-07T06:34:52.841Z,-5.50
2019-02-07T06:37:27.085Z,-5.30
2019-02-07T06:40:08.067Z,-5.50
2019-02-07T06:42:46.568Z,-5.50
2019-02-07T06:45:26.181Z,-5.40
2019-02-07T06:48:15.265Z,-5.50
2019-02-07T06:51:01.347Z,-5.40
2019-02-07T06:53:48.314Z,-3.30
2019-02-07T06:56:34.528Z,-5.40
2019-02-07T06:59:33.548Z,-5.40
2019-02-07T07:02:27.142Z,-5.40
2019-02-07T07:05:02.375Z,-3.70
2019-02-07T07:07:47.968Z,-5.30
2019-02-07T07:10:33.623Z,-5.20
2019-02-07T07:13:25.996Z,-5.20
2019-02-07T07:16:11.765Z,-5.20
2019-02-07T07:19:07.868Z,-5.10
2019-02-07T07:21:51.895Z,-5.00
2019-02-07T07:24:37.325Z,-4.90
2019-02-07T07:27:26.050Z,-4.80
2019-02-07T07:30:16.027Z,-4.70
2019-02-07T07:33:05.792Z,-4.70
2019-02-07T07:36:00.328Z,-4.60
2019-02-07T07:38:45.710Z,-4.50
2019-02-07T07:41:25.716Z,-4.40
2019-02-07T07:44:11.366Z,-4.30
2019-02-07T07:46:46.861Z,-4.20
2019-02-07T07:49:37.473Z,-4.10
2019-02-07T07:52:20.175Z,-4.10
2019-02-07T07:55:10.173Z,-4.10
2019-02-07T07:57:55.854Z,-4.00
2019-02-07T08:00:58.101Z,-4.00
2019-02-07T08:03:33.710Z,-4.00
2019-02-07T08:06:29.845Z,-3.70
2019-02-07T08:09:19.066Z,-3.70
2019-02-07T08:12:14.619Z,-3.20
2019-02-07T08:14:53.826Z,-3.60
2019-02-07T08:17:47.153Z,-3.50
2019-02-07T08:20:25.501Z,-3.40
2019-02-07T08:22:59.179Z,-3.40
2019-02-07T08:25:48.932Z,-3.30
2019-02-07T08:28:42.389Z,-3.30
2019-02-07T08:31:34.381Z,-3.30
2019-02-07T08:34:21.365Z,-3.30
2019-02-07T08:37:07.487Z,-3.30
2019-02-07T08:40:01.118Z,-3.20
2019-02-07T08:42:48.133Z,-3.10
2019-02-07T08:45:44.149Z,-3.10
2019-02-07T08:48:49.439Z,-3.10
2019-02-07T08:51:36.766Z,-2.90
2019-02-07T08:54:27.019Z,-2.70
2019-02-07T08:57:16.775Z,-2.50
2019-02-07T09:00:15.514Z,-2.40
2019-02-07T09:02:57.164Z,-2.20
2019-02-07T09:05:43.118Z,-2.10
2019-02-07T09:08:28.818Z,-2.10
2019-02-07T09:11:18.775Z,-2.10
2019-02-07T09:13:55.907Z,-2.10
2019-02-07T09:16:41.496Z,-1.70
2019-02-07T09:19:37.693Z,-2.10
2019-02-07T09:22:18.924Z,-2.20
2019-02-07T09:25:19.946Z,-2.40
2019-02-07T09:28:05.658Z,-2.30
2019-02-07T09:30:51.445Z,-2.20
2019-02-07T09:33:44.554Z,-2.20
2019-02-07T09:36:26.253Z,-2.30
2019-02-07T09:39:12.240Z,-2.30
2019-02-07T09:42:11.559Z,-2.10
2019-02-07T09:44:57.526Z,-2.10
2019-02-07T09:47:40.369Z,-2.00
2019-02-07T09:50:21.224Z,-1.90
2019-02-07T09:53:03.641Z,-1.50
2019-02-07T09:55:56.502Z,-1.80
2019-02-07T09:58:43.456Z,-1.70
2019-02-07T10:01:20.719Z,-1.80
2019-02-07T10:04:07.708Z,-1.80
2019-02-07T10:07:09.840Z,-1.80
2019-02-07T10:09:46.118Z,-1.70
2019-02-07T10:12:34.881Z,-1.80
2019-02-07T10:15:27.934Z,-1.70
2019-02-07T10:18:17.634Z,-1.70
2019-02-07T10:20:59.187Z,-1.60
2019-02-07T10:23:49.244Z,-1.70
2019-02-07T10:26:36.241Z,-1.60
2019-02-07T10:29:28.943Z,-1.60
2019-02-07T10:32:19.696Z,-1.60
2019-02-07T10:35:06.699Z,-1.60
2019-02-07T10:37:52.332Z,-1.50
2019-02-07T10:40:35.434Z,-1.20
2019-02-07T10:43:19.943Z,-1.50
2019-02-07T10:46:05.514Z,-1.50
2019-02-07T10:48:51.361Z,-1.40
2019-02-07T10:51:53.746Z,-1.40
2019-02-07T10:54:52.824Z,-1.40
2019-02-07T10:57:58.154Z,-1.40
2019-02-07T11:00:48.282Z,-1.30
2019-02-07T11:03:35.269Z,-1.30
2019-02-07T11:06:38.181Z,-1.30
2019-02-07T11:09:29.308Z,-1.20
2019-02-07T11:12:18.897Z,-1.20
2019-02-07T11:15:09.163Z,-1.20
2019-02-07T11:17:52.011Z,-1.20
2019-02-07T11:20:37.701Z,-1.20
2019-02-07T11:23:24.806Z,-1.20
2019-02-07T11:26:21.122Z,-1.20
2019-02-07T11:29:07.155Z,-1.30
2019-02-07T11:32:06.362Z,-1.20
2019-02-07T11:34:53.680Z,-1.20
2019-02-07T11:37:46.804Z,-1.10
2019-02-07T11:40:32.828Z,0.30
2019-02-07T11:43:26.802Z,-1.30
2019-02-07T11:46:12.299Z,-1.30
2019-02-07T11:49:06.548Z,-1.30
2019-02-07T11:51:40.770Z,-1.40
2019-02-07T11:54:17.146Z,0.30
2019-02-07T11:57:01.490Z,-1.40
2019-02-07T11:59:47.208Z,-1.30
2019-02-07T12:02:34.419Z,-1.30
2019-02-07T12:05:20.745Z,-1.20
2019-02-07T12:07:58.567Z,-1.30
2019-02-07T12:10:48.072Z,-1.30
2019-02-07T12:13:23.788Z,-1.30
2019-02-07T12:16:10.805Z,-1.10
2019-02-07T12:18:50.485Z,-1.10
2019-02-07T12:21:49.465Z,-1.10
2019-02-07T12:24:28.690Z,-1.10
2019-02-07T12:27:24.359Z,-1.00
2019-02-07T12:30:10.084Z,-0.90
2019-02-07T12:33:06.394Z,-1.00
2019-02-07T12:35:45.485Z,-1.10
2019-02-07T12:38:33.674Z,-1.20
2019-02-07T12:41:15.808Z,-1.20
2019-02-07T12:44:06.262Z,-1.40
2019-02-07T12:46:53.440Z,-1.40
2019-02-07T12:49:36.309Z,-1.30
2019-02-07T12:52:23.541Z,-1.30
2019-02-07T12:55:03.002Z,-1.30
2019-02-07T12:58:05.215Z,-1.10
2019-02-07T13:01:06.573Z,-1.00
2019-02-07T13:03:56.335Z,-1.00
2019-02-07T13:06:39.981Z,-1.00
2019-02-07T13:09:37.820Z,-1.00
2019-02-07T13:12:15.836Z,-1.00
2019-02-07T13:15:03.223Z,-1.00
2019-02-07T13:17:52.128Z,-1.00
2019-02-07T13:20:40.653Z,-0.90
2019-02-07T13:23:34.091Z,-0.90
2019-02-07T13:26:16.924Z,-0.90
2019-02-07T13:29:02.917Z,-0.90
2019-02-07T13:31:55.982Z,-0.90
2019-02-07T13:34:41.426Z,-0.90
2019-02-07T13:37:15.799Z,-0.80
2019-02-07T13:40:11.747Z,-0.60
2019-02-07T13:43:00.075Z,-0.80
2019-02-07T13:45:49.215Z,-0.90
2019-02-07T13:48:32.493Z,-0.90
2019-02-07T13:51:34.609Z,-0.90
2019-02-07T13:54:16.385Z,-0.90
2019-02-07T13:57:14.633Z,-0.90
2019-02-07T14:00:17.045Z,-0.80
2019-02-07T14:02:54.405Z,-0.80
2019-02-07T14:05:44.327Z,-0.80
2019-02-07T14:08:38.503Z,-0.80
2019-02-07T14:11:16.811Z,-0.80
2019-02-07T14:14:09.731Z,-0.90
2019-02-07T14:16:55.649Z,-0.90
2019-02-07T14:19:41.828Z,-0.90
2019-02-07T14:22:34.799Z,-0.90
2019-02-07T14:25:15.759Z,-0.80
2019-02-07T14:28:02.722Z,-0.80
2019-02-07T14:30:49.727Z,-0.80
2019-02-07T14:33:52.105Z,-0.80
2019-02-07T14:36:34.635Z,-0.60
2019-02-07T14:39:27.457Z,-0.80
2019-02-07T14:42:23.651Z,-0.80
2019-02-07T14:45:09.228Z,-0.80
2019-02-07T14:47:36.735Z,-0.70
2019-02-07T14:50:14.556Z,-0.80
2019-02-07T14:52:34.499Z,-0.80
2019-02-07T14:55:02.004Z,-0.70
2019-02-07T14:57:29.539Z,-0.70
2019-02-07T14:59:57.418Z,-0.50
2019-02-07T15:02:24.875Z,-0.70
2019-02-07T15:04:52.357Z,-0.70
2019-02-07T15:07:19.839Z,-0.70
2019-02-07T15:09:47.337Z,-0.70
2019-02-07T15:12:14.898Z,-0.70
2019-02-07T15:14:42.421Z,-0.60
2019-02-07T15:17:10.199Z,-0.60
2019-02-07T15:19:40.744Z,-0.60
2019-02-07T15:22:08.374Z,-0.60
2019-02-07T15:24:35.873Z,-0.60
2019-02-07T15:27:03.926Z,-0.60
2019-02-07T15:29:31.466Z,-0.60
2019-02-07T15:31:58.941Z,-0.60
2019-02-07T15:34:26.763Z,-0.60
2019-02-07T15:36:54.740Z,-0.60
2019-02-07T15:39:22.235Z,-0.60
2019-02-07T15:41:49.711Z,-0.60
2019-02-07T15:44:17.295Z,-0.60
2019-02-07T15:46:44.825Z,-0.60
2019-02-07T15:49:12.512Z,-0.60
2019-02-07T15:51:40.500Z,-0.50
2019-02-07T15:54:08.073Z,-0.60
2019-02-07T15:56:35.612Z,-0.50
2019-02-07T15:59:21.412Z,-0.50
2019-02-07T16:01:56.513Z,-0.60
2019-02-07T16:04:27.120Z,-0.50
2019-02-07T16:06:54.845Z,-0.60
2019-02-07T16:09:22.332Z,-0.60
2019-02-07T16:11:51.830Z,-0.60
2019-02-07T16:14:19.149Z,-0.60
2019-02-07T16:16:46.609Z,-0.60
2019-02-07T16:19:14.473Z,-0.60
2019-02-07T16:21:42.009Z,-0.20
2019-02-07T16:24:09.541Z,-0.60
2019-02-07T16:26:37.007Z,-0.60
2019-02-07T16:29:04.532Z,-0.60
2019-02-07T16:31:32.125Z,-0.60
2019-02-07T16:33:59.584Z,-0.50
2019-02-07T16:36:27.080Z,-0.60
2019-02-07T16:38:54.570Z,-0.50
2019-02-07T16:41:22.533Z,-0.50
2019-02-07T16:43:50.232Z,-0.50
2019-02-07T16:46:17.957Z,-0.40
2019-02-07T16:48:45.494Z,0.10
2019-02-07T16:51:13.070Z,-0.40
2019-02-07T16:53:41.240Z,-0.30
2019-02-07T16:56:10.015Z,-0.30
2019-02-07T16:58:37.642Z,-0.30
2019-02-07T17:01:07.822Z,-0.20
2019-02-07T17:03:35.655Z,0.70
2019-02-07T17:06:04.087Z,-0.10
2019-02-07T17:08:31.892Z,-0.20
2019-02-07T17:10:59.729Z,-0.10
2019-02-07T17:13:27.434Z,-0.10
2019-02-07T17:15:54.920Z,-0.10
2019-02-07T17:18:22.407Z,-0.10
2019-02-07T17:20:50.322Z,-0.10
2019-02-07T17:23:18.046Z,-0.20
2019-02-07T17:25:46.047Z,-0.10
2019-02-07T17:28:14.215Z,0.60
2019-02-07T17:30:41.877Z,0.00
2019-02-07T17:33:09.556Z,1.20
2019-02-07T17:35:37.492Z,0.00
2019-02-07T17:38:05.139Z,0.00
2019-02-07T17:40:32.804Z,0.00
2019-02-07T17:43:02.528Z,0.00
2019-02-07T17:45:30.517Z,0.00
2019-02-07T17:47:58.101Z,0.00
2019-02-07T17:50:28.484Z,0.00
2019-02-07T17:52:56.357Z,0.00
2019-02-07T17:55:25.422Z,0.10
2019-02-07T17:57:53.002Z,0.00
2019-02-07T18:00:42.919Z,0.10
2019-02-07T18:03:10.922Z,0.00
2019-02-07T18:05:38.557Z,0.10
2019-02-07T18:08:08.590Z,0.80
2019-02-07T18:10:36.286Z,1.70
2019-02-07T18:13:05.099Z,0.20
2019-02-07T18:15:32.612Z,0.10
2019-02-07T18:18:00.515Z,0.50
2019-02-07T18:20:28.194Z,0.20
2019-02-07T18:22:55.800Z,0.20
2019-02-07T18:25:23.286Z,0.20
2019-02-07T18:27:50.786Z,0.20
2019-02-07T18:30:18.620Z,0.20
2019-02-07T18:32:46.310Z,0.20
2019-02-07T18:35:13.965Z,0.30
2019-02-07T18:37:41.482Z,0.30
2019-02-07T18:40:12.208Z,0.20
2019-02-07T18:42:39.708Z,0.20
2019-02-07T18:45:08.468Z,2.00
2019-02-07T18:47:36.234Z,0.50
2019-02-07T18:50:06.207Z,0.30
2019-02-07T18:52:34.117Z,0.30
2019-02-07T18:55:01.633Z,0.30
2019-02-07T18:57:29.201Z,0.50
2019-02-07T18:59:56.711Z,0.40
2019-02-07T19:02:24.165Z,0.40
2019-02-07T19:04:52.050Z,0.40
2019-02-07T19:07:19.582Z,0.40
2019-02-07T19:09:47.120Z,0.60
2019-02-07T19:12:14.602Z,0.40
2019-02-07T19:14:42.114Z,0.50
2019-02-07T19:17:09.651Z,0.50
2019-02-07T19:19:37.163Z,0.50
2019-02-07T19:22:04.799Z,0.40
2019-02-07T19:24:32.618Z,0.50
2019-02-07T19:27:00.130Z,0.50
2019-02-07T19:29:27.687Z,0.50
2019-02-07T19:31:55.193Z,0.80
2019-02-07T19:34:22.748Z,0.50
2019-02-07T19:36:50.183Z,0.50
2019-02-07T19:39:17.699Z,0.50
2019-02-07T19:41:45.516Z,0.50
2019-02-07T19:44:13.002Z,0.50
2019-02-07T19:46:40.939Z,0.50
2019-02-07T19:49:08.448Z,0.50
2019-02-07T19:51:35.933Z,0.40
2019-02-07T19:54:03.554Z,0.40
2019-02-07T19:56:31.056Z,0.40
2019-02-07T19:58:58.544Z,0.40
2019-02-07T20:01:26.099Z,0.50
2019-02-07T20:03:53.667Z,0.60
2019-02-07T20:06:21.161Z,0.50
2019-02-07T20:08:48.683Z,0.50
2019-02-07T20:11:16.213Z,0.50
2019-02-07T20:13:43.676Z,0.50
2019-02-07T20:16:12.449Z,0.50
2019-02-07T20:18:40.358Z,0.40
2019-02-07T20:21:07.882Z,0.50
2019-02-07T20:23:35.420Z,0.50
2019-02-07T20:26:03.135Z,0.50
2019-02-07T20:28:30.641Z,0.50
2019-02-07T20:30:58.179Z,0.40
2019-02-07T20:33:25.711Z,0.40
2019-02-07T20:35:53.207Z,0.40
2019-02-07T20:38:20.913Z,0.40
2019-02-07T20:40:48.398Z,0.50
2019-02-07T20:43:15.932Z,0.40
2019-02-07T20:45:43.418Z,0.50
2019-02-07T20:48:11.045Z,0.50
2019-02-07T20:50:38.527Z,0.50
2019-02-07T20:53:06.652Z,0.50
2019-02-07T20:55:34.248Z,0.60
2019-02-07T20:58:02.178Z,0.60
2019-02-07T21:00:32.031Z,2.00
2019-02-07T21:02:59.811Z,0.60
2019-02-07T21:05:28.645Z,0.60
2019-02-07T21:07:56.271Z,0.50
2019-02-07T21:10:24.628Z,0.50
2019-02-07T21:12:52.170Z,0.50
2019-02-07T21:15:20.176Z,0.60
2019-02-07T21:17:47.867Z,0.50
2019-02-07T21:20:21.044Z,0.60
2019-02-07T21:22:49.157Z,0.60
2019-02-07T21:25:19.011Z,0.60
2019-02-07T21:27:46.510Z,0.50
2019-02-07T21:30:17.316Z,0.50
2019-02-07T21:32:45.129Z,0.50
2019-02-07T21:35:14.764Z,0.50
2019-02-07T21:37:42.217Z,0.50
2019-02-07T21:40:11.764Z,0.50
2019-02-07T21:42:39.262Z,0.50
2019-02-07T21:45:08.337Z,0.50
2019-02-07T21:47:35.834Z,0.50
2019-02-07T21:50:05.974Z,0.50
2019-02-07T21:52:33.641Z,0.50
2019-02-07T21:55:02.055Z,0.50
2019-02-07T21:57:29.559Z,0.50
2019-02-07T22:00:00.925Z,0.40
2019-02-07T22:02:26.463Z,0.50
2019-02-07T22:04:53.958Z,0.40
2019-02-07T22:07:21.489Z,0.40
2019-02-07T22:09:48.974Z,0.40
2019-02-07T22:12:16.454Z,0.40
2019-02-07T22:14:43.951Z,0.40
2019-02-07T22:17:11.421Z,0.40
2019-02-07T22:19:38.900Z,0.40
2019-02-07T22:22:06.457Z,0.40
2019-02-07T22:24:34.161Z,0.40
2019-02-07T22:27:01.829Z,0.40
2019-02-07T22:29:29.302Z,0.40
2019-02-07T22:31:56.827Z,0.40
2019-02-07T22:34:24.299Z,0.30
2019-02-07T22:36:51.756Z,0.50
2019-02-07T22:39:19.255Z,0.30
2019-02-07T22:41:46.741Z,0.30
2019-02-07T22:44:14.614Z,0.30
2019-02-07T22:46:42.152Z,0.40
2019-02-07T22:49:09.615Z,0.40
2019-02-07T22:51:37.153Z,0.50
2019-02-07T22:54:04.638Z,0.50
2019-02-07T22:56:32.092Z,0.60
2019-02-07T22:58:59.607Z,0.60
2019-02-07T23:01:56.108Z,0.60
2019-02-07T23:04:25.002Z,0.60
2019-02-07T23:06:52.510Z,0.80
2019-02-07T23:09:20.019Z,0.70
2019-02-07T23:11:47.700Z,0.60
2019-02-07T23:14:15.281Z,0.60
2019-02-07T23:16:42.836Z,0.50
2019-02-07T23:19:10.311Z,0.50
2019-02-07T23:21:37.905Z,0.50
2019-02-07T23:24:05.787Z,0.40
2019-02-07T23:26:33.230Z,0.40
2019-02-07T23:29:00.726Z,0.40
2019-02-07T23:31:28.234Z,0.40
2019-02-07T23:33:55.729Z,0.40
2019-02-07T23:36:23.557Z,0.40
2019-02-07T23:38:51.000Z,0.40
2019-02-07T23:41:18.477Z,0.50
2019-02-07T23:43:46.426Z,0.50
2019-02-07T23:46:13.901Z,0.50
2019-02-07T23:48:41.798Z,0.50
2019-02-07T23:51:09.319Z,0.50
2019-02-07T23:53:38.873Z,0.50
2019-02-07T23:56:07.040Z,0.50
2019-02-07T23:58:34.513Z,0.50
